createdAt,value
2018-09-14T00:00:38.488Z,80.60
2018-09-14T00:03:07.415Z,80.10
2018-09-14T00:05:35.579Z,80.00
2018-09-14T00:08:04.560Z,80.70
2018-09-14T00:10:32.764Z,80.00
2018-09-14T00:13:01.117Z,81.10
2018-09-14T00:15:29.536Z,80.30
2018-09-14T00:17:57.969Z,81.10
2018-09-14T00:20:26.434Z,81.10
2018-09-14T00:22:54.933Z,80.10
2018-09-14T00:25:23.328Z,80.20
2018-09-14T00:27:51.873Z,80.20
2018-09-14T00:30:20.671Z,80.40
2018-09-14T00:32:49.213Z,81.30
2018-09-14T00:35:17.654Z,81.00
2018-09-14T00:37:46.080Z,80.60
2018-09-14T00:40:14.670Z,79.70
2018-09-14T00:42:43.191Z,80.90
2018-09-14T00:45:12.502Z,80.40
2018-09-14T00:47:40.984Z,80.20
2018-09-14T00:50:09.867Z,80.90
2018-09-14T00:52:38.292Z,81.40
2018-09-14T00:55:06.763Z,80.70
2018-09-14T00:57:35.263Z,79.60
2018-09-14T01:00:03.899Z,80.10
2018-09-14T01:02:32.446Z,80.30
2018-09-14T01:05:00.933Z,79.70
2018-09-14T01:07:29.309Z,80.10
2018-09-14T01:09:57.784Z,80.50
2018-09-14T01:12:26.245Z,80.30
2018-09-14T01:14:54.660Z,80.80
2018-09-14T01:17:23.207Z,80.70
2018-09-14T01:19:51.590Z,80.50
2018-09-14T01:22:20.100Z,80.60
2018-09-14T01:24:48.511Z,81.20
2018-09-14T01:27:17.042Z,80.60
2018-09-14T01:29:45.410Z,80.70
2018-09-14T01:32:13.873Z,81.40
2018-09-14T01:34:42.405Z,81.90
2018-09-14T01:37:10.873Z,82.00
2018-09-14T01:39:39.264Z,83.70
2018-09-14T01:42:07.809Z,81.40
2018-09-14T01:44:36.257Z,81.00
2018-09-14T01:47:04.727Z,81.70
2018-09-14T01:49:33.192Z,81.80
2018-09-14T01:52:01.686Z,80.50
2018-09-14T01:54:30.191Z,81.80
2018-09-14T01:56:58.732Z,82.60
2018-09-14T01:59:27.226Z,81.70
2018-09-14T02:01:55.669Z,83.70
2018-09-14T02:04:24.111Z,84.10
2018-09-14T02:06:52.584Z,83.80
2018-09-14T02:09:20.946Z,83.80
2018-09-14T02:11:49.456Z,83.40
2018-09-14T02:14:17.917Z,82.50
2018-09-14T02:16:46.433Z,82.20
2018-09-14T02:19:14.856Z,81.10
2018-09-14T02:21:43.320Z,81.90
2018-09-14T02:24:11.822Z,81.10
2018-09-14T02:26:40.247Z,82.00
2018-09-14T02:29:08.665Z,82.50
2018-09-14T02:31:37.065Z,81.70
2018-09-14T02:34:05.515Z,81.10
2018-09-14T02:36:33.984Z,82.10
2018-09-14T02:39:02.600Z,82.80
2018-09-14T02:41:31.041Z,83.00
2018-09-14T02:43:59.428Z,83.20
2018-09-14T02:46:27.756Z,81.40
2018-09-14T02:48:56.426Z,81.90
2018-09-14T02:51:24.795Z,82.00
2018-09-14T02:53:53.233Z,82.30
2018-09-14T02:56:21.811Z,81.10
2018-09-14T02:58:50.324Z,82.40
2018-09-14T03:01:18.684Z,81.30
2018-09-14T03:03:47.068Z,82.10
2018-09-14T03:06:15.540Z,83.80
2018-09-14T03:08:44.021Z,83.90
2018-09-14T03:11:12.412Z,84.80
2018-09-14T03:13:41.002Z,85.20
2018-09-14T03:16:09.429Z,85.30
2018-09-14T03:18:37.768Z,83.10
2018-09-14T03:21:06.225Z,81.40
2018-09-14T03:23:34.741Z,81.90
2018-09-14T03:26:03.209Z,81.70
2018-09-14T03:28:31.553Z,81.60
2018-09-14T03:30:59.968Z,81.20
2018-09-14T03:33:28.380Z,83.10
2018-09-14T03:35:56.821Z,83.00
2018-09-14T03:38:25.292Z,82.50
2018-09-14T03:40:53.822Z,81.70
2018-09-14T03:43:22.374Z,81.50
2018-09-14T03:45:51.185Z,82.30
2018-09-14T03:48:19.742Z,82.20
2018-09-14T03:50:48.606Z,83.20
2018-09-14T03:53:17.000Z,83.10
2018-09-14T03:55:45.692Z,82.60
2018-09-14T03:58:14.177Z,83.40
2018-09-14T04:00:42.648Z,83.60
2018-09-14T04:03:11.130Z,83.80
2018-09-14T04:05:39.649Z,83.40
2018-09-14T04:08:08.120Z,82.60
2018-09-14T04:10:36.619Z,82.60
2018-09-14T04:13:05.040Z,82.60
2018-09-14T04:15:33.453Z,82.30
2018-09-14T04:18:01.936Z,82.90
2018-09-14T04:20:30.447Z,82.70
2018-09-14T04:22:58.853Z,82.10
2018-09-14T04:25:27.268Z,82.00
2018-09-14T04:27:55.641Z,81.80
2018-09-14T04:30:24.139Z,82.30
2018-09-14T04:32:52.497Z,82.90
2018-09-14T04:35:21.013Z,83.50
2018-09-14T04:37:49.521Z,81.20
2018-09-14T04:40:17.964Z,84.30
2018-09-14T04:42:46.728Z,83.70
2018-09-14T04:45:15.145Z,83.10
2018-09-14T04:47:43.626Z,83.50
2018-09-14T04:50:12.069Z,83.20
2018-09-14T04:52:40.543Z,84.40
2018-09-14T04:55:11.616Z,84.20
2018-09-14T04:57:40.097Z,83.70
2018-09-14T05:00:09.421Z,83.60
2018-09-14T05:02:37.841Z,84.30
2018-09-14T05:05:06.649Z,83.50
2018-09-14T05:07:35.097Z,82.10
2018-09-14T05:10:03.555Z,84.10
2018-09-14T05:12:31.912Z,83.50
2018-09-14T05:15:00.470Z,83.50
2018-09-14T05:17:28.933Z,83.20
2018-09-14T05:19:57.455Z,83.30
2018-09-14T05:22:25.893Z,82.90
2018-09-14T05:24:54.301Z,83.30
2018-09-14T05:27:22.782Z,83.40
2018-09-14T05:29:51.264Z,84.40
2018-09-14T05:32:19.830Z,84.80
2018-09-14T05:34:48.242Z,83.60
2018-09-14T05:37:16.758Z,83.30
2018-09-14T05:39:45.156Z,82.50
2018-09-14T05:42:13.552Z,83.10
2018-09-14T05:44:41.937Z,84.60
2018-09-14T05:47:10.388Z,84.90
2018-09-14T05:49:38.804Z,83.90
2018-09-14T05:52:07.244Z,83.60
2018-09-14T05:54:36.103Z,84.70
2018-09-14T05:57:04.727Z,84.50
2018-09-14T05:59:33.335Z,84.50
2018-09-14T06:02:01.985Z,84.50
2018-09-14T06:04:30.477Z,84.30
2018-09-14T06:06:58.879Z,84.80
2018-09-14T06:09:27.385Z,84.50
2018-09-14T06:11:55.808Z,84.60
2018-09-14T06:14:27.651Z,85.00
2018-09-14T06:16:56.395Z,83.70
2018-09-14T06:19:24.780Z,82.80
2018-09-14T06:21:53.247Z,83.50
2018-09-14T06:24:21.648Z,82.90
2018-09-14T06:26:50.141Z,83.90
2018-09-14T06:29:18.536Z,84.40
2018-09-14T06:31:46.961Z,83.80
2018-09-14T06:34:15.410Z,83.50
2018-09-14T06:36:43.952Z,84.00
2018-09-14T06:39:12.985Z,83.40
2018-09-14T06:41:41.420Z,82.90
2018-09-14T06:44:10.295Z,83.80
2018-09-14T06:46:39.021Z,83.50
2018-09-14T06:49:07.661Z,83.30
2018-09-14T06:51:37.600Z,81.50
2018-09-14T06:54:06.064Z,82.30
2018-09-14T06:56:34.589Z,82.20
2018-09-14T06:59:03.144Z,82.60
2018-09-14T07:01:31.585Z,81.60
2018-09-14T07:04:00.479Z,81.60
2018-09-14T07:06:29.054Z,81.80
2018-09-14T07:08:57.539Z,81.70
2018-09-14T07:11:26.017Z,80.60
2018-09-14T07:13:54.578Z,81.20
2018-09-14T07:16:23.044Z,80.30
2018-09-14T07:18:51.458Z,80.40
2018-09-14T07:21:19.868Z,81.30
2018-09-14T07:23:48.413Z,80.00
2018-09-14T07:26:16.911Z,80.80
2018-09-14T07:28:45.382Z,80.20
2018-09-14T07:31:14.041Z,80.80
2018-09-14T07:33:42.588Z,80.50
2018-09-14T07:36:11.208Z,80.50
2018-09-14T07:38:39.678Z,80.70
2018-09-14T07:41:08.251Z,79.70
2018-09-14T07:43:36.765Z,80.40
2018-09-14T07:46:05.279Z,80.70
2018-09-14T07:48:33.693Z,79.50
2018-09-14T07:51:02.197Z,78.70
2018-09-14T07:53:30.746Z,79.40
2018-09-14T07:55:59.356Z,78.20
2018-09-14T07:58:27.721Z,79.10
2018-09-14T08:00:56.164Z,79.50
2018-09-14T08:03:24.617Z,79.70
2018-09-14T08:05:53.086Z,79.10
2018-09-14T08:08:21.577Z,77.90
2018-09-14T08:10:50.055Z,78.30
2018-09-14T08:13:18.749Z,78.30
2018-09-14T08:15:47.503Z,77.10
2018-09-14T08:18:15.958Z,78.60
2018-09-14T08:20:44.436Z,78.30
2018-09-14T08:23:12.857Z,78.50
2018-09-14T08:25:41.264Z,77.30
2018-09-14T08:28:10.289Z,77.20
2018-09-14T08:30:38.748Z,75.10
2018-09-14T08:33:07.560Z,75.80
2018-09-14T08:35:36.093Z,75.30
2018-09-14T08:38:04.600Z,74.70
2018-09-14T08:40:33.093Z,75.40
2018-09-14T08:43:01.616Z,74.60
2018-09-14T08:45:30.064Z,74.00
2018-09-14T08:47:58.586Z,74.60
2018-09-14T08:50:26.936Z,74.90
2018-09-14T08:52:56.381Z,73.20
2018-09-14T08:55:24.957Z,72.30
2018-09-14T08:57:53.432Z,70.90
2018-09-14T09:00:23.662Z,70.60
2018-09-14T09:02:53.082Z,70.30
2018-09-14T09:05:21.748Z,71.40
2018-09-14T09:07:50.485Z,71.30
2018-09-14T09:10:19.036Z,72.30
2018-09-14T09:12:47.800Z,71.10
2018-09-14T09:15:16.251Z,71.10
2018-09-14T09:17:44.801Z,70.70
2018-09-14T09:20:13.662Z,68.90
2018-09-14T09:22:42.089Z,68.70
2018-09-14T09:25:10.493Z,67.40
2018-09-14T09:27:39.987Z,68.00
2018-09-14T09:30:08.496Z,68.90
2018-09-14T09:32:36.965Z,68.90
2018-09-14T09:35:05.648Z,69.60
2018-09-14T09:37:34.213Z,69.20
2018-09-14T09:40:02.688Z,66.00
2018-09-14T09:42:31.240Z,64.80
2018-09-14T09:44:59.641Z,66.30
2018-09-14T09:47:28.056Z,65.40
2018-09-14T09:49:56.597Z,64.60
2018-09-14T09:52:25.088Z,63.70
2018-09-14T09:54:53.550Z,63.70
2018-09-14T09:57:22.147Z,63.60
2018-09-14T09:59:50.594Z,62.20
2018-09-14T10:02:24.664Z,62.70
2018-09-14T10:05:05.532Z,62.70
2018-09-14T10:07:36.256Z,61.40
2018-09-14T10:10:04.814Z,61.90
2018-09-14T10:12:33.311Z,60.90
2018-09-14T10:15:01.988Z,59.60
2018-09-14T10:17:30.371Z,61.20
2018-09-14T10:19:58.822Z,60.70
2018-09-14T10:22:27.269Z,60.50
2018-09-14T10:24:55.861Z,61.00
2018-09-14T10:27:24.319Z,59.40
2018-09-14T10:30:02.770Z,59.30
2018-09-14T10:32:31.215Z,59.40
2018-09-14T10:35:00.784Z,57.50
2018-09-14T10:37:29.374Z,58.40
2018-09-14T10:39:57.904Z,57.30
2018-09-14T10:42:26.513Z,57.30
2018-09-14T10:44:55.034Z,57.50
2018-09-14T10:47:23.580Z,56.70
2018-09-14T10:49:52.098Z,57.00
2018-09-14T10:52:20.605Z,54.90
2018-09-14T10:54:49.190Z,55.70
2018-09-14T10:57:17.568Z,55.10
2018-09-14T10:59:46.296Z,54.90
2018-09-14T11:02:14.873Z,55.00
2018-09-14T11:04:43.482Z,54.20
2018-09-14T11:07:12.017Z,53.70
2018-09-14T11:09:40.538Z,54.30
2018-09-14T11:12:09.104Z,55.00
2018-09-14T11:14:37.680Z,53.10
2018-09-14T11:17:11.071Z,54.20
2018-09-14T11:19:40.266Z,53.90
2018-09-14T11:22:08.973Z,52.50
2018-09-14T11:24:37.447Z,51.80
2018-09-14T11:27:06.306Z,51.50
2018-09-14T11:29:34.889Z,50.20
2018-09-14T11:32:03.442Z,49.90
2018-09-14T11:34:31.971Z,50.10
2018-09-14T11:37:01.179Z,50.40
2018-09-14T11:39:29.624Z,49.40
2018-09-14T11:41:59.955Z,49.80
2018-09-14T11:44:28.445Z,50.00
2018-09-14T11:46:57.036Z,49.20
2018-09-14T11:49:25.662Z,49.30
2018-09-14T11:51:54.982Z,47.30
2018-09-14T11:54:23.538Z,48.60
2018-09-14T11:56:52.081Z,48.50
2018-09-14T11:59:20.485Z,47.90
2018-09-14T12:01:48.905Z,47.70
2018-09-14T12:04:17.439Z,49.00
2018-09-14T12:06:45.802Z,47.40
2018-09-14T12:09:14.327Z,48.00
2018-09-14T12:11:42.848Z,47.90
2018-09-14T12:14:11.445Z,47.70
2018-09-14T12:16:39.988Z,46.80
2018-09-14T12:19:08.528Z,48.10
2018-09-14T12:21:37.089Z,47.80
2018-09-14T12:24:05.571Z,47.10
2018-09-14T12:26:34.228Z,47.00
2018-09-14T12:29:02.968Z,47.10
2018-09-14T12:31:31.541Z,48.10
2018-09-14T12:34:00.223Z,47.40
2018-09-14T12:36:29.378Z,48.20
2018-09-14T12:38:58.706Z,48.00
2018-09-14T12:41:27.247Z,50.80
2018-09-14T12:43:55.854Z,49.30
2018-09-14T12:46:31.856Z,48.10
2018-09-14T12:49:13.000Z,48.50
2018-09-14T12:51:44.816Z,49.40
2018-09-14T12:54:13.359Z,47.20
2018-09-14T12:56:42.328Z,46.20
2018-09-14T12:59:10.860Z,47.30
2018-09-14T13:01:39.329Z,48.00
2018-09-14T13:04:07.839Z,48.20
2018-09-14T13:06:36.209Z,47.90
2018-09-14T13:09:08.077Z,48.80
2018-09-14T13:11:36.533Z,48.80
2018-09-14T13:14:05.119Z,47.40
2018-09-14T13:16:33.537Z,48.60
2018-09-14T13:19:01.908Z,49.80
2018-09-14T13:21:30.332Z,48.60
2018-09-14T13:23:58.825Z,49.00
2018-09-14T13:26:27.272Z,47.50
2018-09-14T13:28:55.781Z,48.70
2018-09-14T13:31:24.411Z,48.70
2018-09-14T13:33:58.193Z,49.50
2018-09-14T13:36:26.683Z,48.70
2018-09-14T13:38:55.086Z,49.10
2018-09-14T13:41:23.522Z,49.80
2018-09-14T13:44:05.309Z,49.70
2018-09-14T13:46:42.706Z,49.50
2018-09-14T13:49:25.661Z,47.90
2018-09-14T13:51:57.504Z,48.70
2018-09-14T13:54:27.235Z,49.40
2018-09-14T13:56:59.538Z,48.70
2018-09-14T13:59:28.071Z,48.30
2018-09-14T14:01:56.612Z,49.30
2018-09-14T14:04:28.759Z,50.50
2018-09-14T14:06:57.377Z,49.50
2018-09-14T14:09:25.905Z,48.70
2018-09-14T14:11:54.301Z,48.50
2018-09-14T14:14:24.371Z,49.40
2018-09-14T14:16:52.949Z,49.20
2018-09-14T14:19:26.281Z,49.40
2018-09-14T14:21:54.870Z,49.30
2018-09-14T14:24:24.047Z,50.80
2018-09-14T14:26:53.868Z,49.90
2018-09-14T14:29:22.345Z,50.30
2018-09-14T14:31:52.162Z,50.20
2018-09-14T14:34:20.666Z,50.80
2018-09-14T14:36:49.176Z,51.20
2018-09-14T14:39:17.666Z,50.50
2018-09-14T14:41:46.435Z,51.30
2018-09-14T14:44:14.829Z,51.00
2018-09-14T14:46:43.303Z,49.60
2018-09-14T14:49:12.144Z,49.70
2018-09-14T14:51:40.686Z,49.80
2018-09-14T14:54:09.212Z,50.00
2018-09-14T14:56:37.634Z,50.40
2018-09-14T14:59:06.516Z,51.10
2018-09-14T15:01:35.160Z,50.90
2018-09-14T15:04:03.782Z,51.40
2018-09-14T15:06:32.562Z,51.40
2018-09-14T15:09:01.454Z,51.00
2018-09-14T15:11:29.991Z,51.40
2018-09-14T15:13:58.492Z,52.00
2018-09-14T15:16:27.322Z,52.30
2018-09-14T15:18:55.778Z,52.10
2018-09-14T15:21:24.255Z,52.00
2018-09-14T15:23:53.025Z,54.20
2018-09-14T15:26:21.518Z,53.20
2018-09-14T15:28:50.054Z,53.80
2018-09-14T15:31:18.572Z,52.90
2018-09-14T15:33:47.085Z,51.70
2018-09-14T15:36:15.534Z,53.10
2018-09-14T15:38:44.077Z,53.40
2018-09-14T15:41:12.661Z,52.50
2018-09-14T15:43:41.176Z,53.40
2018-09-14T15:46:09.697Z,52.70
2018-09-14T15:48:38.376Z,53.20
2018-09-14T15:51:06.872Z,54.00
2018-09-14T15:53:35.286Z,54.40
2018-09-14T15:56:03.731Z,55.60
2018-09-14T15:58:32.242Z,55.80
2018-09-14T16:01:00.648Z,56.30
2018-09-14T16:03:29.064Z,55.20
2018-09-14T16:05:57.545Z,54.50
2018-09-14T16:08:26.052Z,53.30
2018-09-14T16:10:54.556Z,53.90
2018-09-14T16:13:23.100Z,55.20
2018-09-14T16:15:51.770Z,54.00
2018-09-14T16:18:20.245Z,55.10
2018-09-14T16:20:48.920Z,54.90
2018-09-14T16:23:17.351Z,55.60
2018-09-14T16:25:45.745Z,55.90
2018-09-14T16:28:14.337Z,55.50
2018-09-14T16:30:43.512Z,56.50
2018-09-14T16:33:12.058Z,56.80
2018-09-14T16:35:40.500Z,57.00
2018-09-14T16:38:08.988Z,57.20
2018-09-14T16:40:37.708Z,57.20
2018-09-14T16:43:06.410Z,57.40
2018-09-14T16:45:35.795Z,57.10
2018-09-14T16:48:04.981Z,58.20
2018-09-14T16:50:33.474Z,58.70
2018-09-14T16:53:03.468Z,58.30
2018-09-14T16:55:32.245Z,58.80
2018-09-14T16:58:07.754Z,59.70
2018-09-14T17:00:36.404Z,60.40
2018-09-14T17:03:04.901Z,59.60
2018-09-14T17:05:33.391Z,59.60
2018-09-14T17:08:01.886Z,59.40
2018-09-14T17:10:30.536Z,60.30
2018-09-14T17:13:00.195Z,61.10
2018-09-14T17:15:29.497Z,61.10
2018-09-14T17:17:57.962Z,61.10
2018-09-14T17:20:26.672Z,61.80
2018-09-14T17:22:55.156Z,61.50
2018-09-14T17:25:23.678Z,61.20
2018-09-14T17:27:52.312Z,62.20
2018-09-14T17:30:21.015Z,61.50
2018-09-14T17:32:49.545Z,62.00
2018-09-14T17:35:19.145Z,62.60
2018-09-14T17:37:54.558Z,62.30
2018-09-14T17:40:23.233Z,62.70
2018-09-14T17:42:51.676Z,63.60
2018-09-14T17:45:20.212Z,62.90
2018-09-14T17:47:50.794Z,63.50
2018-09-14T17:50:19.845Z,62.00
2018-09-14T17:52:48.344Z,63.30
2018-09-14T17:55:16.831Z,63.30
2018-09-14T17:57:45.321Z,63.00
2018-09-14T18:00:25.277Z,63.50
2018-09-14T18:02:55.175Z,63.90
2018-09-14T18:05:23.659Z,63.90
2018-09-14T18:07:52.160Z,64.40
2018-09-14T18:10:20.854Z,65.10
2018-09-14T18:12:52.811Z,64.80
2018-09-14T18:15:21.148Z,65.10
2018-09-14T18:17:54.006Z,65.20
2018-09-14T18:20:22.502Z,65.10
2018-09-14T18:22:51.068Z,65.60
2018-09-14T18:25:19.480Z,65.70
2018-09-14T18:27:47.944Z,65.70
2018-09-14T18:30:20.332Z,66.10
2018-09-14T18:32:48.830Z,65.90
2018-09-14T18:35:17.256Z,66.30
2018-09-14T18:37:45.820Z,66.60
2018-09-14T18:40:14.532Z,66.90
2018-09-14T18:42:42.950Z,66.80
2018-09-14T18:45:11.464Z,66.60
2018-09-14T18:47:39.939Z,66.80
2018-09-14T18:50:08.368Z,66.90
2018-09-14T18:52:36.854Z,67.40
2018-09-14T18:55:05.931Z,66.20
2018-09-14T18:57:34.466Z,65.50
2018-09-14T19:00:02.966Z,65.30
2018-09-14T19:02:31.449Z,65.30
2018-09-14T19:05:00.003Z,65.20
2018-09-14T19:07:28.464Z,65.70
2018-09-14T19:09:57.325Z,65.80
2018-09-14T19:12:26.314Z,65.80
2018-09-14T19:14:54.975Z,66.90
2018-09-14T19:17:23.364Z,67.00
2018-09-14T19:19:51.826Z,67.00
2018-09-14T19:22:20.514Z,66.60
2018-09-14T19:24:49.036Z,66.20
2018-09-14T19:27:17.605Z,66.60
2018-09-14T19:29:46.153Z,66.70
2018-09-14T19:32:14.772Z,66.70
2018-09-14T19:34:43.220Z,66.80
2018-09-14T19:37:11.665Z,67.20
2018-09-14T19:39:40.174Z,66.90
2018-09-14T19:42:08.625Z,67.30
2018-09-14T19:44:37.108Z,67.40
2018-09-14T19:47:05.529Z,67.80
2018-09-14T19:49:34.179Z,67.40
2018-09-14T19:52:02.699Z,67.10
2018-09-14T19:54:31.166Z,67.40
2018-09-14T19:57:00.754Z,67.50
2018-09-14T19:59:29.396Z,67.80
2018-09-14T20:01:58.622Z,67.40
2018-09-14T20:04:27.225Z,67.70
2018-09-14T20:06:56.106Z,67.90
2018-09-14T20:09:24.688Z,68.00
2018-09-14T20:11:53.198Z,67.80
2018-09-14T20:14:21.749Z,67.70
2018-09-14T20:16:50.230Z,68.10
2018-09-14T20:19:18.729Z,67.80
2018-09-14T20:21:47.214Z,67.90
2018-09-14T20:24:15.717Z,67.60
2018-09-14T20:26:44.157Z,67.90
2018-09-14T20:29:12.618Z,68.00
2018-09-14T20:31:41.114Z,68.40
2018-09-14T20:34:09.686Z,68.00
2018-09-14T20:36:38.208Z,68.00
2018-09-14T20:39:09.697Z,68.20
2018-09-14T20:41:38.140Z,69.00
2018-09-14T20:44:06.742Z,67.70
2018-09-14T20:46:35.207Z,68.60
2018-09-14T20:49:03.698Z,68.40
2018-09-14T20:51:32.343Z,68.40
2018-09-14T20:54:00.850Z,68.60
2018-09-14T20:56:29.310Z,68.30
2018-09-14T20:58:57.818Z,68.50
2018-09-14T21:01:26.384Z,68.90
2018-09-14T21:03:54.970Z,68.50
2018-09-14T21:06:23.345Z,69.00
2018-09-14T21:08:51.833Z,69.20
2018-09-14T21:11:20.244Z,69.30
2018-09-14T21:13:48.713Z,69.30
2018-09-14T21:16:17.450Z,69.60
2018-09-14T21:18:45.953Z,68.90
2018-09-14T21:21:14.443Z,69.60
2018-09-14T21:23:42.804Z,69.70
2018-09-14T21:26:11.193Z,69.40
2018-09-14T21:28:39.740Z,69.40
2018-09-14T21:31:11.236Z,69.70
2018-09-14T21:33:39.759Z,70.10
2018-09-14T21:36:09.181Z,70.00
2018-09-14T21:38:37.765Z,70.00
2018-09-14T21:41:06.164Z,69.80
2018-09-14T21:43:35.601Z,70.20
2018-09-14T21:46:04.058Z,70.10
2018-09-14T21:48:32.481Z,70.00
2018-09-14T21:51:00.981Z,70.00
2018-09-14T21:53:29.416Z,69.80
2018-09-14T21:55:57.917Z,70.10
2018-09-14T21:58:26.685Z,70.10
2018-09-14T22:01:00.569Z,70.10
2018-09-14T22:03:28.939Z,69.90
2018-09-14T22:05:57.305Z,69.90
2018-09-14T22:08:26.034Z,70.50
2018-09-14T22:10:54.420Z,70.20
2018-09-14T22:13:22.899Z,70.40
2018-09-14T22:15:51.364Z,70.30
2018-09-14T22:18:19.869Z,70.00
2018-09-14T22:20:48.292Z,69.80
2018-09-14T22:23:16.977Z,70.20
2018-09-14T22:25:45.653Z,70.10
2018-09-14T22:28:14.070Z,70.10
2018-09-14T22:30:42.498Z,70.40
2018-09-14T22:33:11.024Z,70.50
2018-09-14T22:35:40.125Z,70.20
2018-09-14T22:38:08.720Z,70.10
2018-09-14T22:40:37.221Z,70.50
2018-09-14T22:43:05.616Z,70.30
2018-09-14T22:45:34.083Z,70.70
2018-09-14T22:48:02.561Z,70.40
2018-09-14T22:50:31.007Z,70.70
2018-09-14T22:52:59.480Z,70.40
2018-09-14T22:55:27.964Z,70.80
2018-09-14T22:57:56.652Z,70.90
2018-09-14T23:00:30.303Z,70.60
2018-09-14T23:02:58.984Z,70.90
2018-09-14T23:05:27.449Z,71.30
2018-09-14T23:07:55.924Z,71.20
2018-09-14T23:10:24.516Z,71.20
2018-09-14T23:12:53.105Z,71.40
2018-09-14T23:15:21.585Z,71.50
2018-09-14T23:17:50.247Z,71.20
2018-09-14T23:20:18.681Z,71.50
2018-09-14T23:22:47.230Z,71.80
2018-09-14T23:25:15.928Z,71.40
2018-09-14T23:27:44.481Z,71.70
2018-09-14T23:30:12.915Z,71.70
2018-09-14T23:32:41.389Z,71.60
2018-09-14T23:35:09.804Z,71.80
2018-09-14T23:37:38.288Z,71.80
2018-09-14T23:40:06.780Z,71.80
2018-09-14T23:42:35.296Z,72.80
2018-09-14T23:45:03.738Z,71.80
2018-09-14T23:47:32.196Z,72.10
2018-09-14T23:50:00.658Z,72.10
2018-09-14T23:52:29.073Z,72.10
2018-09-14T23:54:57.561Z,72.20
2018-09-14T23:57:26.066Z,72.30
2018-09-14T23:59:54.490Z,72.20
